createdAt,value
2019-05-21T00:02:02.534Z,82.10
2019-05-21T00:04:35.289Z,82.70
2019-05-21T00:07:05.831Z,83.20
2019-05-21T00:09:38.966Z,81.10
2019-05-21T00:12:08.353Z,81.30
2019-05-21T00:14:38.816Z,83.00
2019-05-21T00:17:08.491Z,82.60
2019-05-21T00:19:39.817Z,81.10
2019-05-21T00:22:10.400Z,82.20
2019-05-21T00:24:42.780Z,83.70
2019-05-21T00:27:12.534Z,85.60
2019-05-21T00:30:18.168Z,83.70
2019-05-21T00:33:25.703Z,84.30
2019-05-21T00:36:33.857Z,83.60
2019-05-21T00:39:40.039Z,82.00
2019-05-21T00:42:09.344Z,83.10
2019-05-21T00:44:44.078Z,82.50
2019-05-21T00:47:15.209Z,85.10
2019-05-21T00:49:44.635Z,83.60
2019-05-21T00:52:14.853Z,82.70
2019-05-21T00:54:54.057Z,84.50
2019-05-21T00:57:26.781Z,83.30
2019-05-21T00:59:57.053Z,83.80
2019-05-21T01:02:31.223Z,82.90
2019-05-21T01:05:01.714Z,82.40
2019-05-21T01:07:36.144Z,82.00
2019-05-21T01:10:09.083Z,83.80
2019-05-21T01:12:38.422Z,83.90
2019-05-21T01:15:09.135Z,84.00
2019-05-21T01:17:38.761Z,83.60
2019-05-21T01:20:08.462Z,83.60
2019-05-21T01:22:44.301Z,83.30
2019-05-21T01:25:15.910Z,83.60
2019-05-21T01:27:45.698Z,83.40
2019-05-21T01:30:16.694Z,83.60
2019-05-21T01:32:50.235Z,83.60
2019-05-21T01:35:20.999Z,84.90
2019-05-21T01:37:55.056Z,84.40
2019-05-21T01:40:27.391Z,83.80
2019-05-21T01:43:03.220Z,84.00
2019-05-21T01:45:35.864Z,83.80
2019-05-21T01:48:07.558Z,84.70
2019-05-21T01:50:36.976Z,84.40
2019-05-21T01:53:08.778Z,82.30
2019-05-21T01:55:39.622Z,84.40
2019-05-21T01:58:10.379Z,82.90
2019-05-21T02:00:42.407Z,83.40
2019-05-21T02:03:16.070Z,85.10
2019-05-21T02:05:48.050Z,84.70
2019-05-21T02:08:17.849Z,84.80
2019-05-21T02:10:54.620Z,84.40
2019-05-21T02:13:23.996Z,83.70
2019-05-21T02:15:56.704Z,84.70
2019-05-21T02:18:29.586Z,82.60
2019-05-21T02:21:09.446Z,82.70
2019-05-21T02:23:44.406Z,84.10
2019-05-21T02:26:19.225Z,84.10
2019-05-21T02:28:50.909Z,82.40
2019-05-21T02:31:23.771Z,82.80
2019-05-21T02:33:55.136Z,82.80
2019-05-21T02:36:28.231Z,83.50
2019-05-21T02:39:01.928Z,84.50
2019-05-21T02:41:33.474Z,81.90
2019-05-21T02:44:02.859Z,83.80
2019-05-21T02:46:32.381Z,83.50
2019-05-21T02:49:01.930Z,83.90
2019-05-21T02:51:52.755Z,82.90
2019-05-21T02:54:39.530Z,83.40
2019-05-21T02:56:59.340Z,84.20
2019-05-21T02:59:33.016Z,84.00
2019-05-21T03:02:20.771Z,84.50
2019-05-21T03:04:50.191Z,84.90
2019-05-21T03:07:27.637Z,84.90
2019-05-21T03:10:00.713Z,83.80
2019-05-21T03:12:31.677Z,83.80
2019-05-21T03:15:03.754Z,83.90
2019-05-21T03:17:33.488Z,84.90
2019-05-21T03:20:02.854Z,85.50
2019-05-21T03:22:32.454Z,84.70
2019-05-21T03:25:03.001Z,84.60
2019-05-21T03:27:34.351Z,85.30
2019-05-21T03:30:06.107Z,85.80
2019-05-21T03:32:37.727Z,85.30
2019-05-21T03:35:09.557Z,84.70
2019-05-21T03:37:42.658Z,84.50
2019-05-21T03:40:15.411Z,84.90
2019-05-21T03:42:44.530Z,84.40
2019-05-21T03:45:16.949Z,85.50
2019-05-21T03:47:48.952Z,83.80
2019-05-21T03:50:22.208Z,84.80
2019-05-21T03:52:52.426Z,84.40
2019-05-21T03:55:24.057Z,84.00
2019-05-21T03:58:03.646Z,84.80
2019-05-21T04:00:38.162Z,85.40
2019-05-21T04:03:18.120Z,85.00
2019-05-21T04:06:14.681Z,84.40
2019-05-21T04:08:48.906Z,83.80
2019-05-21T04:11:21.470Z,84.50
2019-05-21T04:13:54.802Z,84.20
2019-05-21T04:16:46.188Z,84.50
2019-05-21T04:19:24.879Z,84.30
2019-05-21T04:21:55.662Z,85.50
2019-05-21T04:24:29.775Z,86.30
2019-05-21T04:27:03.560Z,85.60
2019-05-21T04:29:38.389Z,85.30
2019-05-21T04:32:09.141Z,85.50
2019-05-21T04:34:50.981Z,85.00
2019-05-21T04:37:27.288Z,85.90
2019-05-21T04:40:03.893Z,85.60
2019-05-21T04:42:36.968Z,85.40
2019-05-21T04:45:06.718Z,86.20
2019-05-21T04:47:36.060Z,86.70
2019-05-21T04:50:05.838Z,86.00
2019-05-21T04:52:35.166Z,85.30
2019-05-21T04:55:05.334Z,85.50
2019-05-21T04:57:37.450Z,84.40
2019-05-21T05:00:07.122Z,84.60
2019-05-21T05:02:36.469Z,84.70
2019-05-21T05:05:06.201Z,83.60
2019-05-21T05:07:35.617Z,84.10
2019-05-21T05:10:05.914Z,83.70
2019-05-21T05:12:35.357Z,83.90
2019-05-21T05:15:05.741Z,83.80
2019-05-21T05:17:35.062Z,83.80
2019-05-21T05:20:04.807Z,84.50
2019-05-21T05:22:34.185Z,85.50
2019-05-21T05:25:03.514Z,85.30
2019-05-21T05:27:33.015Z,85.60
2019-05-21T05:30:02.346Z,84.20
2019-05-21T05:32:31.756Z,84.30
2019-05-21T05:35:01.185Z,82.50
2019-05-21T05:37:43.174Z,83.40
2019-05-21T05:40:01.784Z,84.20
2019-05-21T05:42:33.884Z,83.50
2019-05-21T05:45:03.289Z,83.10
2019-05-21T05:47:32.920Z,82.90
2019-05-21T05:50:04.091Z,84.40
2019-05-21T05:52:33.502Z,84.00
2019-05-21T05:55:02.878Z,84.00
2019-05-21T05:57:32.326Z,84.20
2019-05-21T06:00:01.696Z,82.80
2019-05-21T06:02:31.152Z,83.20
2019-05-21T06:05:00.581Z,82.50
2019-05-21T06:07:29.921Z,82.80
2019-05-21T06:09:59.290Z,82.60
2019-05-21T06:12:28.710Z,82.00
2019-05-21T06:14:58.468Z,82.10
2019-05-21T06:17:27.753Z,83.10
2019-05-21T06:19:57.114Z,82.30
2019-05-21T06:22:26.466Z,83.10
2019-05-21T06:24:55.764Z,83.40
2019-05-21T06:27:24.914Z,82.70
2019-05-21T06:29:56.084Z,83.40
2019-05-21T06:32:25.251Z,83.10
2019-05-21T06:34:54.414Z,82.40
2019-05-21T06:37:23.634Z,84.00
2019-05-21T06:39:52.789Z,83.50
2019-05-21T06:42:22.086Z,84.00
2019-05-21T06:44:51.384Z,83.30
2019-05-21T06:47:20.509Z,82.80
2019-05-21T06:49:49.658Z,82.50
2019-05-21T06:52:18.869Z,83.30
2019-05-21T06:54:48.032Z,82.70
2019-05-21T06:57:17.295Z,83.00
2019-05-21T06:59:46.432Z,82.20
2019-05-21T07:02:18.383Z,81.80
2019-05-21T07:04:47.591Z,82.70
2019-05-21T07:07:16.784Z,82.50
2019-05-21T07:09:45.941Z,82.70
2019-05-21T07:12:15.076Z,83.10
2019-05-21T07:14:44.252Z,83.20
2019-05-21T07:17:14.101Z,82.30
2019-05-21T07:19:43.314Z,82.10
2019-05-21T07:22:13.504Z,82.70
2019-05-21T07:24:42.856Z,83.10
2019-05-21T07:27:12.172Z,82.00
2019-05-21T07:29:41.301Z,82.60
2019-05-21T07:32:10.472Z,82.00
2019-05-21T07:34:39.654Z,82.10
2019-05-21T07:37:08.836Z,82.60
2019-05-21T07:39:38.003Z,81.80
2019-05-21T07:42:07.187Z,82.30
2019-05-21T07:44:36.400Z,81.90
2019-05-21T07:47:05.583Z,81.40
2019-05-21T07:49:34.732Z,82.10
2019-05-21T07:52:03.910Z,81.20
2019-05-21T07:54:33.141Z,81.60
2019-05-21T07:57:02.327Z,80.40
2019-05-21T07:59:31.561Z,80.60
2019-05-21T08:02:00.732Z,79.80
2019-05-21T08:04:30.066Z,81.50
2019-05-21T08:06:59.356Z,81.70
2019-05-21T08:09:28.521Z,82.10
2019-05-21T08:11:57.747Z,81.20
2019-05-21T08:14:26.873Z,81.40
2019-05-21T08:16:56.019Z,81.30
2019-05-21T08:19:25.134Z,80.30
2019-05-21T08:21:54.277Z,80.30
2019-05-21T08:24:23.458Z,80.90
2019-05-21T08:26:52.581Z,80.70
2019-05-21T08:29:21.898Z,81.00
2019-05-21T08:31:51.049Z,81.70
2019-05-21T08:34:20.206Z,81.10
2019-05-21T08:36:49.541Z,80.00
2019-05-21T08:39:28.389Z,79.70
2019-05-21T08:41:49.722Z,80.10
2019-05-21T08:44:18.964Z,80.60
2019-05-21T08:46:48.156Z,80.60
2019-05-21T08:49:17.278Z,79.70
2019-05-21T08:51:46.416Z,79.30
2019-05-21T08:54:17.354Z,79.50
2019-05-21T08:56:46.673Z,78.80
2019-05-21T08:59:15.953Z,78.80
2019-05-21T09:01:45.296Z,79.30
2019-05-21T09:04:14.612Z,77.30
2019-05-21T09:06:43.793Z,76.90
2019-05-21T09:09:12.978Z,76.90
2019-05-21T09:11:42.119Z,77.60
2019-05-21T09:14:11.366Z,77.70
2019-05-21T09:16:40.653Z,76.90
2019-05-21T09:19:09.829Z,76.90
2019-05-21T09:21:38.962Z,77.80
2019-05-21T09:24:08.156Z,77.30
2019-05-21T09:26:37.344Z,77.10
2019-05-21T09:29:06.494Z,76.80
2019-05-21T09:31:35.796Z,75.70
2019-05-21T09:34:04.981Z,75.10
2019-05-21T09:36:34.114Z,75.90
2019-05-21T09:39:04.432Z,75.50
2019-05-21T09:41:33.667Z,75.60
2019-05-21T09:44:02.892Z,74.50
2019-05-21T09:46:32.045Z,74.50
2019-05-21T09:49:01.347Z,75.50
2019-05-21T09:51:30.577Z,74.20
2019-05-21T09:53:59.739Z,75.00
2019-05-21T09:56:36.141Z,74.90
2019-05-21T09:59:19.128Z,74.00
2019-05-21T10:01:50.261Z,74.00
2019-05-21T10:04:19.423Z,73.60
2019-05-21T10:06:48.621Z,74.40
2019-05-21T10:09:19.534Z,74.60
2019-05-21T10:11:50.816Z,74.40
2019-05-21T10:14:19.977Z,73.70
2019-05-21T10:16:49.137Z,73.40
2019-05-21T10:19:18.235Z,74.40
2019-05-21T10:21:47.426Z,74.30
2019-05-21T10:24:16.605Z,74.70
2019-05-21T10:26:49.116Z,74.70
2019-05-21T10:29:18.368Z,74.20
2019-05-21T10:31:47.475Z,73.30
2019-05-21T10:34:17.105Z,72.60
2019-05-21T10:36:48.211Z,72.30
2019-05-21T10:39:17.333Z,72.60
2019-05-21T10:41:46.534Z,74.00
2019-05-21T10:44:15.758Z,74.80
2019-05-21T10:46:44.912Z,74.10
2019-05-21T10:49:14.056Z,74.00
2019-05-21T10:51:43.180Z,74.10
2019-05-21T10:54:12.351Z,73.70
2019-05-21T10:56:47.908Z,73.30
2019-05-21T10:59:12.564Z,72.30
2019-05-21T11:02:00.907Z,72.20
2019-05-21T11:04:46.489Z,73.40
2019-05-21T11:07:17.446Z,72.90
2019-05-21T11:09:46.643Z,73.50
2019-05-21T11:12:15.786Z,72.80
2019-05-21T11:14:44.974Z,72.50
2019-05-21T11:17:15.886Z,72.30
2019-05-21T11:19:45.087Z,72.60
2019-05-21T11:22:14.414Z,72.20
2019-05-21T11:24:43.610Z,71.50
2019-05-21T11:27:12.803Z,71.90
2019-05-21T11:29:41.992Z,71.00
2019-05-21T11:32:11.255Z,71.00
2019-05-21T11:34:40.452Z,71.10
2019-05-21T11:37:09.756Z,70.90
2019-05-21T11:39:39.526Z,70.70
2019-05-21T11:42:08.642Z,70.00
2019-05-21T11:44:37.854Z,70.20
2019-05-21T11:47:07.084Z,71.70
2019-05-21T11:49:36.316Z,70.90
2019-05-21T11:52:05.572Z,70.40
2019-05-21T11:54:34.678Z,71.50
2019-05-21T11:57:03.879Z,70.70
2019-05-21T11:59:33.261Z,71.10
2019-05-21T12:02:02.619Z,71.10
2019-05-21T12:04:31.764Z,71.10
2019-05-21T12:07:03.534Z,71.20
2019-05-21T12:09:33.415Z,69.90
2019-05-21T12:12:02.557Z,70.70
2019-05-21T12:14:31.947Z,71.30
2019-05-21T12:17:01.256Z,71.40
2019-05-21T12:19:30.449Z,70.90
2019-05-21T12:21:59.639Z,70.60
2019-05-21T12:24:28.818Z,71.70
2019-05-21T12:26:57.988Z,71.00
2019-05-21T12:29:27.283Z,70.80
2019-05-21T12:31:56.453Z,70.30
2019-05-21T12:34:25.775Z,70.30
2019-05-21T12:36:55.035Z,70.40
2019-05-21T12:39:24.188Z,70.60
2019-05-21T12:41:53.481Z,70.30
2019-05-21T12:44:22.643Z,70.70
2019-05-21T12:46:51.822Z,70.90
2019-05-21T12:49:22.177Z,71.80
2019-05-21T12:51:51.384Z,72.20
2019-05-21T12:54:20.576Z,71.60
2019-05-21T12:56:49.861Z,72.50
2019-05-21T12:59:19.267Z,73.00
2019-05-21T13:01:49.915Z,73.00
2019-05-21T13:04:19.298Z,72.80
2019-05-21T13:06:48.695Z,72.50
2019-05-21T13:09:31.296Z,72.70
2019-05-21T13:11:51.262Z,72.70
2019-05-21T13:14:20.518Z,72.90
2019-05-21T13:16:49.701Z,72.70
2019-05-21T13:19:19.353Z,71.70
2019-05-21T13:21:48.702Z,73.10
2019-05-21T13:24:17.855Z,72.80
2019-05-21T13:26:47.155Z,73.00
2019-05-21T13:29:16.395Z,73.10
2019-05-21T13:31:45.518Z,73.30
2019-05-21T13:34:14.709Z,73.70
2019-05-21T13:36:43.991Z,72.90
2019-05-21T13:39:13.127Z,73.10
2019-05-21T13:41:42.303Z,72.90
2019-05-21T13:44:11.537Z,72.20
2019-05-21T13:46:40.652Z,72.70
2019-05-21T13:49:09.853Z,72.20
2019-05-21T13:51:39.097Z,71.70
2019-05-21T13:54:08.354Z,71.00
2019-05-21T13:56:37.712Z,70.70
2019-05-21T13:59:06.953Z,71.20
2019-05-21T14:01:40.557Z,71.50
2019-05-21T14:04:07.778Z,72.70
2019-05-21T14:06:37.054Z,72.30
2019-05-21T14:09:07.123Z,72.00
2019-05-21T14:11:39.725Z,72.70
2019-05-21T14:14:09.057Z,72.20
2019-05-21T14:16:38.419Z,72.50
2019-05-21T14:19:07.697Z,72.50
2019-05-21T14:21:36.881Z,72.80
2019-05-21T14:24:06.095Z,72.50
2019-05-21T14:26:35.412Z,72.90
2019-05-21T14:29:04.723Z,72.60
2019-05-21T14:31:33.925Z,72.20
2019-05-21T14:34:03.343Z,71.80
2019-05-21T14:36:33.647Z,71.80
2019-05-21T14:39:06.344Z,72.50
2019-05-21T14:41:34.672Z,72.20
2019-05-21T14:44:04.304Z,72.30
2019-05-21T14:46:33.561Z,72.30
2019-05-21T14:49:02.685Z,72.20
2019-05-21T14:51:32.082Z,72.50
2019-05-21T14:54:04.805Z,72.30
2019-05-21T14:56:33.981Z,72.00
2019-05-21T14:59:03.213Z,72.40
2019-05-21T15:01:32.503Z,72.20
2019-05-21T15:04:01.681Z,72.60
2019-05-21T15:06:30.950Z,72.90
2019-05-21T15:09:00.091Z,72.20
2019-05-21T15:11:29.738Z,71.50
2019-05-21T15:13:58.992Z,72.00
2019-05-21T15:16:28.200Z,72.20
2019-05-21T15:18:57.345Z,72.00
2019-05-21T15:21:31.999Z,72.10
2019-05-21T15:24:01.681Z,72.10
2019-05-21T15:26:31.821Z,72.00
2019-05-21T15:29:01.003Z,72.10
2019-05-21T15:31:30.234Z,72.30
2019-05-21T15:34:00.026Z,71.60
2019-05-21T15:36:29.308Z,71.80
2019-05-21T15:38:58.488Z,71.80
2019-05-21T15:41:27.685Z,72.60
2019-05-21T15:43:56.811Z,73.20
2019-05-21T15:46:26.192Z,73.10
2019-05-21T15:48:55.372Z,73.30
2019-05-21T15:51:24.627Z,73.40
2019-05-21T15:53:53.844Z,73.80
2019-05-21T15:56:23.004Z,73.30
2019-05-21T15:58:52.168Z,73.30
2019-05-21T16:01:21.480Z,73.40
2019-05-21T16:03:50.733Z,72.60
2019-05-21T16:06:20.828Z,72.30
2019-05-21T16:08:50.252Z,72.80
2019-05-21T16:11:28.786Z,72.40
2019-05-21T16:13:50.361Z,73.10
2019-05-21T16:16:19.491Z,73.00
2019-05-21T16:18:48.622Z,73.40
2019-05-21T16:21:17.815Z,73.80
2019-05-21T16:23:47.172Z,73.80
2019-05-21T16:26:16.344Z,73.30
2019-05-21T16:28:45.519Z,72.90
2019-05-21T16:31:14.710Z,73.50
2019-05-21T16:33:44.046Z,74.20
2019-05-21T16:36:13.291Z,74.40
2019-05-21T16:38:42.488Z,74.20
2019-05-21T16:41:11.641Z,74.10
2019-05-21T16:43:40.800Z,74.40
2019-05-21T16:46:10.525Z,74.20
2019-05-21T16:48:39.701Z,74.60
2019-05-21T16:51:09.026Z,74.10
2019-05-21T16:53:38.211Z,73.80
2019-05-21T16:56:07.339Z,73.60
2019-05-21T16:58:36.661Z,73.80
2019-05-21T17:01:07.925Z,74.40
2019-05-21T17:03:37.164Z,74.40
2019-05-21T17:06:06.894Z,74.80
2019-05-21T17:08:36.036Z,74.50
2019-05-21T17:11:06.040Z,74.60
2019-05-21T17:13:35.426Z,74.40
2019-05-21T17:16:05.213Z,75.80
2019-05-21T17:18:34.720Z,75.80
2019-05-21T17:21:04.071Z,76.00
2019-05-21T17:23:33.353Z,75.80
2019-05-21T17:26:02.644Z,76.30
2019-05-21T17:28:31.874Z,76.00
2019-05-21T17:31:01.348Z,75.10
2019-05-21T17:33:30.673Z,75.90
2019-05-21T17:35:59.877Z,75.50
2019-05-21T17:38:29.011Z,75.30
2019-05-21T17:40:58.151Z,75.10
2019-05-21T17:43:27.419Z,75.10
2019-05-21T17:46:00.637Z,75.10
2019-05-21T17:48:36.560Z,75.90
2019-05-21T17:51:09.037Z,76.10
2019-05-21T17:53:46.672Z,76.00
2019-05-21T17:56:19.074Z,76.30
2019-05-21T17:58:55.571Z,75.30
2019-05-21T18:01:27.494Z,75.20
2019-05-21T18:03:57.559Z,74.80
2019-05-21T18:06:32.201Z,75.60
2019-05-21T18:09:10.396Z,75.10
2019-05-21T18:11:42.727Z,74.50
2019-05-21T18:14:45.023Z,74.80
2019-05-21T18:17:29.226Z,74.80
2019-05-21T18:20:03.727Z,75.50
2019-05-21T18:22:38.733Z,75.70
2019-05-21T18:25:10.595Z,75.60
2019-05-21T18:27:42.037Z,74.60
2019-05-21T18:30:18.064Z,74.50
2019-05-21T18:33:12.471Z,74.90
2019-05-21T18:35:51.264Z,75.30
2019-05-21T18:38:29.213Z,75.40
2019-05-21T18:41:05.226Z,75.30
2019-05-21T18:43:40.383Z,75.10
2019-05-21T18:46:15.746Z,74.70
2019-05-21T18:48:57.076Z,74.80
2019-05-21T18:52:02.265Z,74.80
2019-05-21T18:54:34.150Z,74.60
2019-05-21T18:57:07.810Z,75.20
2019-05-21T18:59:42.826Z,74.80
2019-05-21T19:02:22.337Z,74.80
2019-05-21T19:04:54.441Z,75.00
2019-05-21T19:07:35.186Z,75.10
2019-05-21T19:10:04.974Z,75.30
2019-05-21T19:12:38.520Z,75.60
2019-05-21T19:15:28.241Z,75.10
2019-05-21T19:17:58.844Z,75.70
2019-05-21T19:20:40.414Z,75.00
2019-05-21T19:23:16.110Z,75.20
2019-05-21T19:25:56.686Z,74.70
2019-05-21T19:28:34.666Z,74.90
2019-05-21T19:31:07.259Z,74.30
2019-05-21T19:33:42.841Z,75.00
2019-05-21T19:39:17.213Z,75.00
2019-05-21T19:41:50.725Z,75.00
2019-05-21T19:44:25.055Z,75.00
2019-05-21T19:46:57.473Z,74.20
2019-05-21T19:49:27.212Z,74.70
2019-05-21T19:52:02.247Z,75.30
2019-05-21T19:54:47.023Z,74.90
2019-05-21T19:57:26.386Z,74.70
2019-05-21T19:59:59.445Z,74.50
2019-05-21T20:02:30.422Z,74.50
2019-05-21T20:05:01.439Z,74.20
2019-05-21T20:07:52.106Z,73.90
2019-05-21T20:10:23.762Z,73.90
2019-05-21T20:12:58.045Z,74.20
2019-05-21T20:15:31.940Z,74.20
2019-05-21T20:18:07.409Z,73.90
2019-05-21T20:20:37.740Z,73.70
2019-05-21T20:23:14.107Z,74.10
2019-05-21T20:25:56.189Z,73.80
2019-05-21T20:28:17.603Z,73.90
2019-05-21T20:30:54.743Z,74.40
2019-05-21T20:33:41.071Z,74.10
2019-05-21T20:36:10.900Z,74.30
2019-05-21T20:38:44.192Z,74.50
2019-05-21T20:41:17.547Z,75.00
2019-05-21T20:43:58.551Z,74.60
2019-05-21T20:46:25.430Z,74.50
2019-05-21T20:48:56.947Z,75.00
2019-05-21T20:51:28.288Z,74.60
2019-05-21T20:53:57.873Z,73.90
2019-05-21T20:56:28.615Z,75.00
2019-05-21T20:59:05.894Z,74.40
2019-05-21T21:01:41.332Z,74.30
2019-05-21T21:04:11.697Z,74.40
2019-05-21T21:06:47.347Z,74.20
2019-05-21T21:09:16.658Z,74.70
2019-05-21T21:11:47.943Z,73.90
2019-05-21T21:14:19.776Z,74.10
2019-05-21T21:16:50.430Z,73.00
2019-05-21T21:19:21.662Z,74.80
2019-05-21T21:22:04.839Z,74.70
2019-05-21T21:24:34.170Z,74.60
2019-05-21T21:27:05.899Z,74.20
2019-05-21T21:29:35.160Z,74.40
2019-05-21T21:32:04.712Z,74.40
2019-05-21T21:34:35.042Z,75.00
2019-05-21T21:37:11.083Z,74.60
2019-05-21T21:39:41.419Z,74.10
2019-05-21T21:42:17.417Z,73.90
2019-05-21T21:44:49.448Z,74.40
2019-05-21T21:47:20.369Z,73.90
2019-05-21T21:49:51.833Z,73.80
2019-05-21T21:52:21.241Z,74.00
2019-05-21T21:54:50.898Z,73.70
2019-05-21T21:57:20.193Z,73.50
2019-05-21T21:59:50.207Z,73.80
2019-05-21T22:02:31.953Z,74.20
2019-05-21T22:05:03.399Z,74.10
2019-05-21T22:07:32.676Z,74.30
2019-05-21T22:10:04.806Z,74.50
2019-05-21T22:12:36.916Z,73.80
2019-05-21T22:15:06.984Z,73.80
2019-05-21T22:17:39.715Z,73.60
2019-05-21T22:20:10.013Z,73.10
2019-05-21T22:22:41.710Z,73.10
2019-05-21T22:25:12.736Z,72.90
2019-05-21T22:27:42.282Z,72.70
2019-05-21T22:30:15.346Z,72.70
2019-05-21T22:32:45.612Z,72.70
2019-05-21T22:35:15.489Z,72.50
2019-05-21T22:37:48.711Z,72.90
2019-05-21T22:40:18.274Z,73.10
2019-05-21T22:42:47.400Z,72.90
2019-05-21T22:45:17.656Z,73.10
2019-05-21T22:47:48.005Z,72.90
2019-05-21T22:50:24.253Z,73.00
2019-05-21T22:52:53.453Z,73.00
2019-05-21T22:55:26.217Z,72.70
2019-05-21T22:57:57.265Z,72.30
2019-05-21T23:00:32.166Z,72.50
2019-05-21T23:03:02.572Z,72.90
2019-05-21T23:05:39.360Z,72.90
2019-05-21T23:08:11.536Z,73.00
2019-05-21T23:10:50.743Z,72.50
2019-05-21T23:13:20.011Z,71.50
2019-05-21T23:15:56.099Z,71.40
2019-05-21T23:18:25.810Z,72.20
2019-05-21T23:20:58.301Z,72.40
2019-05-21T23:23:36.995Z,73.20
2019-05-21T23:26:09.733Z,73.10
2019-05-21T23:28:40.957Z,73.30
2019-05-21T23:31:12.010Z,73.00
2019-05-21T23:33:43.941Z,73.20
2019-05-21T23:36:14.522Z,72.90
2019-05-21T23:38:45.434Z,72.70
2019-05-21T23:41:18.777Z,72.90
2019-05-21T23:43:53.658Z,73.50
2019-05-21T23:46:25.742Z,73.30
2019-05-21T23:48:56.985Z,72.70
2019-05-21T23:51:29.872Z,72.80
2019-05-21T23:54:00.842Z,72.50
2019-05-21T23:56:30.697Z,71.70
2019-05-21T23:59:00.011Z,72.20
